Weather & Traffic



KLGB 281453Z 00000KT 7SM OVC013 17/12 A3000 RMK AO2 SLP160 T01670122 53013


TAF KLGB 281125Z 2812/2912 VRB03KT P6SM OVC014 FM281700 VRB03KT P6SM BKN020 FM282000 20008KT P6SM SKC FM290000 30008KT P6SM SKC FM290600 VRB03KT P6SM BKN012 FM291000 VRB03KT P6SM OVC009